首页
METAR-TAF:

METAR-TAF

机场 :

马德普拉塔, 阿根廷

纬度: 37-56S, 经度: 057-35W, 海拔: 18米

当前天气观测

该预报发布于28分钟前的18:00 UTC
风速10节,风向
温度 17°C
湿度 77%
气压 1016 hPa
能见度10公里或以上
1500米以下无云,无积雨云

METAR: SAZM 061800Z 08010KT CAVOK 17/13 Q1016

时间: 15:28 (18:28 UTC)

预报

该预报发布于1小时和28分钟前的17:00 UTC
预报有效从06日的 18点(UTC)到 07日的 18点(UTC)
风速10节,风向北转东北
能见度10公里或以上
1500米以下无云,无积雨云
成为
从 07日的 00点(UTC)到 07日的 03点(UTC)
风速3节,风向多变
能見度: 3000
多云层高于1000英尺
轻雾
短暂存在
从 07日的 08点(UTC)到 07日的 14点(UTC)
能見度: 0500
阴天层高于500英尺
成为
从 07日的 15点(UTC)到 07日的 18点(UTC)
风速10节,风向南转南东
能见度10公里或以上
多云层高于2000英尺

TAF: SAZM 061700Z 0618/0718 02010KT CAVOK TX15/0718Z TN07/0710Z BECMG 0700/0703 VRB03KT 3000 BR BKN010 TEMPO 0708/0714 0500 FG OVC005 BECMG 0715/0718 15010KT 9999 BKN020

超过4000个机场的气象观测和天气预报(METAR&TAF报告)。

可查询的气象台以黄色和红色小点在地图上表示。

将鼠标移到小点上方,可查看气象台名称。

然后点击查看天气观测和预报。

如需切换地图:点击带黑十字的绿色按钮放大地图;点击带横线的绿色按钮缩小地图;或者点击绿色箭头查看邻近地区的地图。


METAR-TAF: